createdAt,value
2023-02-28T00:02:35.316Z,80.7
2023-02-28T00:14:35.331Z,81.0
2023-02-28T00:26:35.338Z,81.9
2023-02-28T00:38:35.434Z,81.6
2023-02-28T00:50:35.410Z,81.5
2023-02-28T01:02:35.335Z,80.4
2023-02-28T01:14:35.334Z,80.5
2023-02-28T01:26:35.427Z,81.0
2023-02-28T01:38:35.330Z,80.6
2023-02-28T01:50:36.200Z,80.9
2023-02-28T02:02:35.393Z,79.5
2023-02-28T02:14:35.392Z,79.4
2023-02-28T02:26:35.350Z,80.0
2023-02-28T02:38:35.407Z,79.1
2023-02-28T02:50:35.453Z,79.3
2023-02-28T03:02:35.491Z,81.0
2023-02-28T03:14:35.326Z,81.9
2023-02-28T03:26:35.360Z,82.2
2023-02-28T03:38:35.440Z,83.4
2023-02-28T03:50:35.339Z,84.0
2023-02-28T04:02:35.443Z,84.2
2023-02-28T04:14:35.334Z,84.0
2023-02-28T04:26:35.332Z,83.8
2023-02-28T04:38:35.368Z,84.3
2023-02-28T04:50:35.417Z,83.2
2023-02-28T05:02:35.433Z,81.5
2023-02-28T05:14:35.391Z,81.1
2023-02-28T05:26:35.341Z,81.2
2023-02-28T05:38:37.769Z,78.3
2023-02-28T05:50:35.325Z,78.3
2023-02-28T06:02:35.468Z,77.4
2023-02-28T06:14:35.457Z,77.8
2023-02-28T06:26:35.379Z,78.4
2023-02-28T06:38:35.328Z,77.6
2023-02-28T06:50:35.419Z,77.4
2023-02-28T07:02:35.407Z,77.1
2023-02-28T07:14:35.441Z,75.1
2023-02-28T07:26:35.383Z,73.1
2023-02-28T07:38:35.400Z,70.1
2023-02-28T07:50:35.399Z,72.0
2023-02-28T08:02:35.394Z,69.0
2023-02-28T08:14:35.342Z,62.8
2023-02-28T08:26:35.380Z,64.6
2023-02-28T08:38:35.344Z,60.8
2023-02-28T08:50:35.395Z,52.5
2023-02-28T09:02:35.402Z,50.2
2023-02-28T09:14:35.336Z,51.7
2023-02-28T09:26:43.158Z,53.7
2023-02-28T09:38:35.434Z,50.7
2023-02-28T09:50:35.439Z,50.5
2023-02-28T10:02:36.048Z,47.3
2023-02-28T10:14:35.423Z,46.7
2023-02-28T10:26:35.409Z,46.6
2023-02-28T10:38:35.328Z,46.8
2023-02-28T10:50:35.436Z,47.4
2023-02-28T11:02:35.730Z,47.2
2023-02-28T11:14:35.393Z,46.6
2023-02-28T11:26:35.326Z,43.7
2023-02-28T11:38:35.406Z,46.1
2023-02-28T11:50:35.346Z,44.4
2023-02-28T12:02:35.442Z,43.8
2023-02-28T12:14:35.399Z,44.7
2023-02-28T12:26:35.386Z,44.0
2023-02-28T12:38:35.364Z,46.3
2023-02-28T12:50:35.451Z,45.7
2023-02-28T13:02:35.378Z,47.2
2023-02-28T13:14:35.342Z,45.8
2023-02-28T13:26:35.332Z,44.8
2023-02-28T13:38:35.437Z,43.3
2023-02-28T13:50:35.335Z,43.4
2023-02-28T14:02:35.327Z,44.3
2023-02-28T14:14:35.410Z,46.4
2023-02-28T14:26:35.387Z,47.6
2023-02-28T14:38:35.388Z,47.4
2023-02-28T14:50:35.336Z,47.6
2023-02-28T15:02:35.405Z,48.6
2023-02-28T15:14:35.397Z,48.1
2023-02-28T15:26:35.359Z,49.1
2023-02-28T15:38:35.330Z,48.4
2023-02-28T15:50:35.324Z,49.1
2023-02-28T16:02:35.551Z,50.1
2023-02-28T16:14:35.336Z,50.5
2023-02-28T16:26:35.387Z,49.0
2023-02-28T16:38:35.329Z,50.3
2023-02-28T16:50:35.329Z,50.3
2023-02-28T17:02:35.498Z,50.5
2023-02-28T17:14:35.406Z,52.8
2023-02-28T17:26:35.389Z,51.5
2023-02-28T17:38:35.452Z,52.2
2023-02-28T17:50:35.446Z,53.3
2023-02-28T18:02:35.474Z,53.0
2023-02-28T18:14:35.438Z,53.9
2023-02-28T18:26:35.416Z,54.3
2023-02-28T18:38:35.323Z,54.4
2023-02-28T18:50:35.420Z,54.8
2023-02-28T19:02:35.385Z,55.4
2023-02-28T19:14:35.333Z,55.9
2023-02-28T19:26:35.447Z,55.9
2023-02-28T19:38:35.333Z,56.4
2023-02-28T19:50:35.425Z,56.7
2023-02-28T20:02:35.383Z,61.1
2023-02-28T20:14:35.400Z,62.8
2023-02-28T20:26:35.406Z,62.7
2023-02-28T20:38:35.411Z,62.4
2023-02-28T20:50:35.391Z,62.6
2023-02-28T21:02:35.404Z,63.5
2023-02-28T21:14:35.375Z,65.3
2023-02-28T21:26:35.348Z,65.2
2023-02-28T21:38:35.404Z,65.1
2023-02-28T21:50:35.401Z,64.9
2023-02-28T22:02:35.415Z,66.7
2023-02-28T22:14:35.450Z,67.7
2023-02-28T22:26:35.638Z,68.3
2023-02-28T22:38:35.440Z,69.5
2023-02-28T22:50:35.376Z,68.9
2023-02-28T23:02:35.385Z,70.0
2023-02-28T23:14:35.326Z,70.6
2023-02-28T23:26:35.328Z,71.2
2023-02-28T23:38:35.315Z,71.8
2023-02-28T23:50:35.330Z,76.0
